Time;durP1;ratioP1;P1;durP2;ratioP2;P2;SDS_P1;SDS_P2;PMS_P1;PMS_P2;Temp;Humidity;BMP_temperature;BMP_pressure;BME280_temperature;BME280_humidity;BME280_pressure;Samples;Min_cycle;Max_cycle;Signal;HPM_P1;HPM_P2
2024/02/03 00:00:33;;;;;;;1.77;0.60;;;;;;;9.94;79.66;101161.19;5018536;28;20112;-53
2024/02/03 00:03:00;;;;;;;6.30;1.27;;;;;;;9.85;79.67;101156.72;5024489;28;20136;-54
2024/02/03 00:05:27;;;;;;;2.95;0.70;;;;;;;9.89;79.88;101153.31;5020352;28;20049;-55
2024/02/03 00:07:54;;;;;;;4.00;1.02;;;;;;;9.91;79.81;101151.66;5018446;28;20057;-54
2024/02/03 00:10:20;;;;;;;6.18;0.80;;;;;;;9.90;80.00;101144.75;5024653;28;20045;-52
2024/02/03 00:12:47;;;;;;;2.55;0.70;;;;;;;9.88;79.66;101151.59;5022571;28;20125;-52
2024/02/03 00:15:14;;;;;;;4.80;1.35;;;;;;;9.86;79.17;101153.28;5023122;28;20050;-52
2024/02/03 00:17:41;;;;;;;2.05;1.02;;;;;;;9.81;79.18;101154.91;5022625;28;20052;-57
2024/02/03 00:20:08;;;;;;;3.50;0.90;;;;;;;9.80;79.18;101154.06;5015203;28;20525;-57
2024/02/03 00:22:35;;;;;;;2.38;1.10;;;;;;;9.79;79.58;101146.25;5022167;28;20042;-56
2024/02/03 00:25:02;;;;;;;2.95;0.73;;;;;;;9.77;79.01;101141.91;5023732;28;20123;-56
2024/02/03 00:27:29;;;;;;;7.43;1.00;;;;;;;9.77;79.18;101139.31;5025839;28;20054;-58
2024/02/03 00:29:55;;;;;;;3.10;0.90;;;;;;;9.76;79.10;101147.06;5019352;28;20053;-51
2024/02/03 00:32:22;;;;;;;3.83;0.93;;;;;;;9.73;79.58;101142.69;5030795;28;20053;-57
2024/02/03 00:34:49;;;;;;;4.07;1.08;;;;;;;9.71;79.71;101143.53;5020381;28;20057;-58
2024/02/03 00:37:16;;;;;;;4.50;1.10;;;;;;;9.69;79.63;101143.50;5018011;28;20053;-53
2024/02/03 00:39:42;;;;;;;3.60;1.50;;;;;;;9.66;79.09;101125.31;5022666;28;20049;-55
2024/02/03 00:42:09;;;;;;;3.88;1.10;;;;;;;9.64;78.89;101137.38;5019620;28;20080;-56
2024/02/03 00:44:38;;;;;;;3.72;1.17;;;;;;;9.58;79.27;101130.38;5022657;28;20060;-52
2024/02/03 00:47:06;;;;;;;4.68;1.23;;;;;;;9.57;80.11;101125.16;5024381;28;20051;-55
2024/02/03 00:49:33;;;;;;;1.25;0.63;;;;;;;9.55;80.33;101124.28;5020251;28;20140;-55
2024/02/03 00:52:00;;;;;;;4.22;1.38;;;;;;;9.62;80.15;101126.09;5024052;28;20130;-54
2024/02/03 00:54:27;;;;;;;3.22;1.10;;;;;;;9.67;79.52;101127.09;5022224;28;20041;-57
2024/02/03 00:56:54;;;;;;;2.53;1.00;;;;;;;9.67;80.56;101121.91;5018406;28;20050;-59
2024/02/03 00:59:21;;;;;;;1.90;1.20;;;;;;;9.69;80.10;101120.22;5043471;28;20050;-51
2024/02/03 01:01:47;;;;;;;3.58;1.02;;;;;;;9.75;80.26;101122.91;5020448;28;20433;-48
2024/02/03 01:04:14;;;;;;;1.73;1.02;;;;;;;9.80;80.22;101119.53;5012813;28;20053;-51
2024/02/03 01:06:41;;;;;;;3.08;1.42;;;;;;;9.85;80.24;101125.66;5017562;28;20132;-50
2024/02/03 01:09:08;;;;;;;4.78;0.95;;;;;;;9.86;80.28;101127.41;5019280;28;20049;-59
2024/02/03 01:11:35;;;;;;;2.78;1.75;;;;;;;9.88;79.62;101121.41;5021181;28;20056;-53
2024/02/03 01:14:03;;;;;;;2.25;1.50;;;;;;;9.92;79.66;101130.09;5018578;28;20108;-58
2024/02/03 01:16:30;;;;;;;4.20;1.60;;;;;;;9.95;80.06;101131.84;5018241;28;20058;-52
2024/02/03 01:18:59;;;;;;;5.60;1.52;;;;;;;9.95;79.86;101132.75;5016818;28;20053;-50
2024/02/03 01:21:28;;;;;;;5.97;1.85;;;;;;;9.97;79.85;101131.03;5019807;28;20083;-51
2024/02/03 01:23:56;;;;;;;8.77;2.22;;;;;;;9.99;80.42;101129.38;5021130;28;20103;-53
2024/02/03 01:26:23;;;;;;;2.67;0.65;;;;;;;10.01;80.26;101127.69;5025086;28;20092;-55
2024/02/03 01:28:56;;;;;;;3.70;1.15;;;;;;;10.02;80.51;101113.88;5027071;28;20057;-58
2024/02/03 01:31:24;;;;;;;5.95;1.73;;;;;;;10.06;80.36;101114.81;5022292;28;20049;-57
2024/02/03 01:33:51;;;;;;;4.68;2.13;;;;;;;10.08;80.18;101112.25;5026365;28;20415;-57
2024/02/03 01:36:19;;;;;;;4.18;1.17;;;;;;;10.08;80.12;101101.88;5021461;28;20048;-55
2024/02/03 01:38:50;;;;;;;5.63;1.15;;;;;;;10.07;79.87;101115.69;5024744;28;20478;-54
2024/02/03 01:41:18;;;;;;;4.75;1.40;;;;;;;10.11;80.29;101101.94;5017836;28;20053;-53
2024/02/03 01:43:45;;;;;;;5.43;1.23;;;;;;;10.11;80.65;101107.13;5041795;28;20077;-56
2024/02/03 01:46:15;;;;;;;3.17;1.33;;;;;;;10.08;80.92;101102.75;5024172;28;20056;-56
2024/02/03 01:48:43;;;;;;;3.22;1.00;;;;;;;10.13;80.65;101090.75;5025672;28;20041;-55
2024/02/03 01:51:13;;;;;;;5.38;1.00;;;;;;;10.21;80.45;101096.06;5029001;28;20073;-53
2024/02/03 01:53:41;;;;;;;3.20;1.30;;;;;;;10.25;80.28;101100.44;5017521;28;20495;-53
2024/02/03 01:56:10;;;;;;;6.07;1.20;;;;;;;10.28;79.87;101084.97;5023708;28;20049;-52
2024/02/03 01:58:37;;;;;;;2.88;1.35;;;;;;;10.27;80.66;101088.38;5015740;28;20466;-55
2024/02/03 02:01:05;;;;;;;1.45;0.80;;;;;;;10.24;80.73;101085.75;5017015;28;20421;-55
2024/02/03 02:03:34;;;;;;;3.55;1.13;;;;;;;10.33;80.15;101086.75;5017760;28;20049;-50
2024/02/03 02:06:01;;;;;;;2.30;1.23;;;;;;;10.35;79.60;101091.09;5012649;28;20132;-57
2024/02/03 02:08:33;;;;;;;5.95;0.82;;;;;;;10.36;80.74;101091.94;5014409;28;20176;-56
2024/02/03 02:11:02;;;;;;;4.40;1.58;;;;;;;10.36;80.64;101091.94;5022728;28;20410;-54
2024/02/03 02:13:29;;;;;;;1.35;0.75;;;;;;;10.36;80.69;101092.84;5017672;28;20053;-53
2024/02/03 02:15:56;;;;;;;2.95;0.68;;;;;;;10.39;80.86;101081.66;5054951;28;20466;-57
2024/02/03 02:18:24;;;;;;;4.55;0.80;;;;;;;10.41;79.90;101087.72;5015884;28;20494;-58
2024/02/03 02:20:52;;;;;;;3.30;0.98;;;;;;;10.43;79.88;101092.94;5019907;28;20631;-53
2024/02/03 02:23:19;;;;;;;5.18;1.65;;;;;;;10.44;80.27;101082.59;5023689;28;20422;-54
2024/02/03 02:25:45;;;;;;;2.55;0.60;;;;;;;10.42;80.87;101092.06;5020661;28;20053;-58
2024/02/03 02:28:13;;;;;;;2.63;0.85;;;;;;;10.47;80.59;101095.59;5021281;28;20081;-54
2024/02/03 02:30:40;;;;;;;1.60;0.95;;;;;;;10.48;80.64;101092.19;5034606;28;20053;-51
2024/02/03 02:33:09;;;;;;;5.78;1.17;;;;;;;10.51;79.35;101107.75;5018867;28;20048;-57
2024/02/03 02:35:37;;;;;;;5.32;0.90;;;;;;;10.51;79.94;101097.38;5027045;28;20743;-55
2024/02/03 02:38:04;;;;;;;4.07;0.88;;;;;;;10.55;80.33;101103.50;5022101;28;20552;-54
2024/02/03 02:40:30;;;;;;;3.13;0.90;;;;;;;10.53;79.81;101095.72;5025265;28;20055;-53
2024/02/03 02:42:57;;;;;;;3.28;0.80;;;;;;;10.56;80.01;101089.69;5022582;28;20077;-55
2024/02/03 02:45:24;;;;;;;3.65;0.93;;;;;;;10.57;79.56;101095.75;5020025;28;20081;-54
2024/02/03 02:47:51;;;;;;;1.15;0.85;;;;;;;10.52;80.74;101083.63;5012963;28;20125;-53
2024/02/03 02:50:19;;;;;;;2.50;1.08;;;;;;;10.56;80.79;101078.44;5024133;28;20550;-55
2024/02/03 02:52:46;;;;;;;3.47;0.70;;;;;;;10.59;79.52;101074.19;5020776;28;20060;-48
2024/02/03 02:55:13;;;;;;;1.38;0.68;;;;;;;10.62;79.99;101070.78;5020641;28;20056;-55
2024/02/03 02:57:39;;;;;;;4.50;1.02;;;;;;;10.59;79.95;101071.59;5028526;28;20695;-53
2024/02/03 03:00:09;;;;;;;4.82;1.05;;;;;;;10.60;80.44;101088.03;5022032;28;20045;-55
2024/02/03 03:02:37;;;;;;;1.70;1.20;;;;;;;10.61;80.11;101072.47;5015877;28;20053;-52
2024/02/03 03:05:04;;;;;;;1.42;0.88;;;;;;;10.58;80.77;101066.41;5052902;28;20045;-56
2024/02/03 03:07:31;;;;;;;3.08;1.25;;;;;;;10.62;80.14;101058.69;5024884;28;20490;-58
2024/02/03 03:09:57;;;;;;;3.30;1.10;;;;;;;10.60;79.77;101069.91;5023805;28;20057;-55
2024/02/03 03:12:24;;;;;;;1.95;0.60;;;;;;;10.56;80.53;101065.50;5020568;28;20633;-54
2024/02/03 03:14:51;;;;;;;4.80;1.38;;;;;;;10.63;79.92;101068.22;5018617;28;20064;-50
2024/02/03 03:17:17;;;;;;;2.15;0.90;;;;;;;10.61;79.51;101062.13;5021400;28;20103;-53
2024/02/03 03:19:44;;;;;;;2.72;1.00;;;;;;;10.63;79.67;101062.16;5020354;28;20054;-55
2024/02/03 03:22:12;;;;;;;5.93;1.35;;;;;;;10.65;80.17;101057.88;5021306;28;20050;-51
2024/02/03 03:24:39;;;;;;;4.63;1.25;;;;;;;10.64;80.71;101051.81;5017096;28;20060;-54
2024/02/03 03:27:06;;;;;;;6.03;0.70;;;;;;;10.66;80.44;101050.13;5021962;28;20118;-55
2024/02/03 03:29:33;;;;;;;2.50;1.23;;;;;;;10.65;79.94;101052.69;5011101;28;20049;-55
2024/02/03 03:31:59;;;;;;;2.85;0.90;;;;;;;10.62;80.80;101042.28;5022418;28;20053;-56
2024/02/03 03:34:26;;;;;;;2.13;1.00;;;;;;;10.65;80.75;101042.31;5019930;28;20057;-50
2024/02/03 03:36:53;;;;;;;2.63;0.88;;;;;;;10.67;80.03;101038.00;5020525;28;20753;-55
2024/02/03 03:39:20;;;;;;;3.40;1.05;;;;;;;10.68;79.76;101047.56;5023364;28;20041;-55
2024/02/03 03:41:47;;;;;;;2.90;0.73;;;;;;;10.67;80.08;101040.59;5019067;28;20140;-53
2024/02/03 03:44:16;;;;;;;5.63;1.08;;;;;;;10.69;80.72;101043.22;5015109;28;20136;-54
2024/02/03 03:46:43;;;;;;;2.00;1.25;;;;;;;10.67;79.81;101040.59;5025028;28;20092;-55
2024/02/03 03:49:09;;;;;;;5.45;1.15;;;;;;;10.67;80.15;101032.84;5027778;28;20064;-52
2024/02/03 03:51:36;;;;;;;5.05;1.30;;;;;;;10.71;80.51;101031.16;5020004;28;20046;-55
2024/02/03 03:54:03;;;;;;;3.97;1.17;;;;;;;10.72;80.39;101038.97;5017563;28;20084;-50
2024/02/03 03:56:30;;;;;;;1.92;0.85;;;;;;;10.73;79.89;101032.03;5028618;28;20069;-57
2024/02/03 03:58:59;;;;;;;1.92;0.73;;;;;;;10.72;80.74;101032.91;5020551;28;20053;-55
2024/02/03 04:01:25;;;;;;;2.55;0.90;;;;;;;10.72;79.87;101020.81;5021437;28;20506;-55
2024/02/03 04:03:52;;;;;;;5.78;1.52;;;;;;;10.74;80.23;101019.09;5020015;28;20422;-55
2024/02/03 04:06:19;;;;;;;2.33;0.75;;;;;;;10.73;79.82;101019.09;5016523;28;20061;-55
2024/02/03 04:08:46;;;;;;;1.42;0.68;;;;;;;10.74;79.92;101016.50;5016401;28;20046;-54
2024/02/03 04:11:14;;;;;;;5.50;1.00;;;;;;;10.75;79.34;101017.41;5017208;28;20061;-56
2024/02/03 04:13:41;;;;;;;4.60;1.17;;;;;;;10.76;79.56;101019.13;5012664;28;20058;-54
2024/02/03 04:16:07;;;;;;;3.10;1.13;;;;;;;10.73;80.53;101025.16;5016246;28;20060;-55
2024/02/03 04:18:34;;;;;;;5.55;1.08;;;;;;;10.76;80.75;101019.13;5016119;28;20505;-57
2024/02/03 04:21:01;;;;;;;4.07;1.27;;;;;;;10.75;80.34;101023.47;5011551;28;20055;-54
2024/02/03 04:23:28;;;;;;;2.78;1.25;;;;;;;10.76;79.53;101025.19;5022126;28;20516;-53
2024/02/03 04:25:55;;;;;;;4.07;1.33;;;;;;;10.73;80.01;101030.34;5013762;28;20050;-55
2024/02/03 04:28:22;;;;;;;3.83;1.33;;;;;;;10.76;80.17;101025.19;5026805;28;20068;-54
2024/02/03 04:30:49;;;;;;;3.83;1.17;;;;;;;10.72;80.09;101031.19;5018745;28;20049;-55
2024/02/03 04:33:16;;;;;;;3.35;1.25;;;;;;;10.74;79.59;101026.88;5020729;28;20052;-54
2024/02/03 04:35:44;;;;;;;2.60;1.05;;;;;;;10.76;79.18;101025.19;5022445;28;20048;-52
2024/02/03 04:38:10;;;;;;;2.63;1.13;;;;;;;10.76;79.47;101024.31;5024744;28;20061;-54
2024/02/03 04:40:37;;;;;;;2.80;1.98;;;;;;;10.76;79.85;101020.00;5022290;28;20151;-55
2024/02/03 04:43:04;;;;;;;2.97;1.13;;;;;;;10.76;80.20;101020.00;5021519;28;20059;-56
2024/02/03 04:45:31;;;;;;;3.78;1.00;;;;;;;10.74;80.06;101016.50;5022372;28;20406;-53
2024/02/03 04:47:57;;;;;;;2.72;1.15;;;;;;;10.76;80.28;101014.81;5018626;28;20477;-53
2024/02/03 04:50:24;;;;;;;3.20;1.17;;;;;;;10.67;80.45;101025.06;5021466;28;20123;-51
2024/02/03 04:52:51;;;;;;;3.60;1.02;;;;;;;10.72;80.04;101020.81;5023219;28;20075;-52
2024/02/03 04:55:21;;;;;;;2.50;1.23;;;;;;;10.70;80.62;101030.28;5017378;28;20060;-54
2024/02/03 04:57:48;;;;;;;3.53;0.85;;;;;;;10.70;79.60;101025.09;5018764;28;20048;-55
2024/02/03 05:00:17;;;;;;;3.42;1.30;;;;;;;10.72;80.46;101028.59;5018285;28;20152;-55
2024/02/03 05:02:43;;;;;;;2.60;1.27;;;;;;;10.69;79.49;101028.56;5020910;28;20115;-59
2024/02/03 05:05:10;;;;;;;4.93;1.13;;;;;;;10.65;80.69;101031.97;5017558;28;20065;-56
2024/02/03 05:07:37;;;;;;;2.25;0.75;;;;;;;10.66;80.49;101028.50;5023668;28;20406;-55
2024/02/03 05:10:04;;;;;;;1.85;0.50;;;;;;;10.68;80.74;101037.19;5018096;28;20828;-51
2024/02/03 05:12:32;;;;;;;1.95;1.08;;;;;;;10.65;79.88;101039.72;5022581;28;20093;-53
2024/02/03 05:14:59;;;;;;;1.60;1.17;;;;;;;10.57;80.67;101034.44;5016681;28;20136;-51
2024/02/03 05:17:31;;;;;;;2.58;0.90;;;;;;;10.61;80.04;101035.38;5021165;28;20159;-54
2024/02/03 05:19:59;;;;;;;5.00;1.60;;;;;;;10.64;80.67;101035.41;5016834;28;20144;-53
2024/02/03 05:22:25;;;;;;;2.70;0.80;;;;;;;10.64;80.67;101020.72;5017555;28;20069;-58
2024/02/03 05:24:52;;;;;;;1.30;0.80;;;;;;;10.61;79.86;101035.38;5015254;28;20410;-51
2024/02/03 05:27:19;;;;;;;3.08;1.15;;;;;;;10.63;80.73;101038.81;5016388;28;20057;-54
2024/02/03 05:29:48;;;;;;;2.25;0.75;;;;;;;10.61;80.07;101033.63;5023402;28;20060;-53
2024/02/03 05:32:15;;;;;;;2.90;1.10;;;;;;;10.66;80.46;101038.88;5021563;28;20054;-49
2024/02/03 05:34:42;;;;;;;4.07;0.70;;;;;;;10.66;80.36;101031.09;5013006;28;20050;-54
2024/02/03 05:37:10;;;;;;;2.25;0.80;;;;;;;10.57;80.24;101031.00;4993740;28;20068;-52
2024/02/03 05:39:36;;;;;;;2.92;0.90;;;;;;;10.59;79.81;101034.47;4994176;28;20053;-57
2024/02/03 05:42:03;;;;;;;1.20;0.57;;;;;;;10.52;80.70;101026.63;5011946;28;20140;-51
2024/02/03 05:44:30;;;;;;;1.58;1.08;;;;;;;10.60;80.65;101024.13;5013062;28;20050;-51
2024/02/03 05:46:56;;;;;;;3.35;1.42;;;;;;;10.59;79.88;101021.50;5022161;28;20045;-54
2024/02/03 05:49:23;;;;;;;1.88;0.80;;;;;;;10.51;80.65;101019.69;5045333;28;20136;-54
2024/02/03 05:51:50;;;;;;;1.63;0.63;;;;;;;10.60;80.79;101012.91;5018275;28;20053;-53
2024/02/03 05:54:16;;;;;;;1.75;0.88;;;;;;;10.59;80.89;101000.78;5013013;28;20054;-55
2024/02/03 05:56:43;;;;;;;1.95;0.60;;;;;;;10.59;79.63;101000.78;5023345;28;20518;-57
2024/02/03 05:59:11;;;;;;;2.60;0.75;;;;;;;10.58;79.38;101015.47;5023812;28;20422;-55
2024/02/03 06:01:58;;;;;;;2.35;1.10;;;;;;;10.57;79.99;101012.84;5023649;28;20049;-55
2024/02/03 06:04:27;;;;;;;4.82;0.70;;;;;;;10.51;79.69;101011.91;5016825;28;20078;-50
2024/02/03 06:06:54;;;;;;;1.90;1.27;;;;;;;10.53;80.14;101007.63;5022571;28;20048;-51
2024/02/03 06:09:22;;;;;;;4.80;1.13;;;;;;;10.55;79.54;101007.66;5025591;28;20132;-58
2024/02/03 06:11:49;;;;;;;5.28;0.95;;;;;;;10.53;80.52;101006.75;5025122;28;20508;-53
2024/02/03 06:14:16;;;;;;;4.72;0.77;;;;;;;10.49;80.44;101005.84;5021955;28;20053;-55
2024/02/03 06:16:43;;;;;;;2.33;1.05;;;;;;;10.47;80.08;101022.22;5023537;28;20403;-53
2024/02/03 06:19:10;;;;;;;2.00;0.70;;;;;;;10.48;80.82;101027.44;5012840;28;20052;-56
2024/02/03 06:21:36;;;;;;;3.55;0.90;;;;;;;10.50;80.27;101028.31;5026786;28;20054;-55
2024/02/03 06:24:03;;;;;;;3.22;1.08;;;;;;;10.45;80.28;101029.97;5020563;28;20087;-54
2024/02/03 06:26:31;;;;;;;8.68;0.88;;;;;;;10.52;80.04;101025.75;5020959;28;20049;-50
2024/02/03 06:28:58;;;;;;;3.72;1.55;;;;;;;10.57;80.08;101028.41;5019894;28;20042;-57
2024/02/03 06:31:25;;;;;;;1.60;0.88;;;;;;;10.52;80.46;101015.38;5041236;28;20064;-52
2024/02/03 06:33:51;;;;;;;1.92;1.02;;;;;;;10.57;80.21;101024.06;5017992;28;20057;-53
2024/02/03 06:36:18;;;;;;;5.55;1.08;;;;;;;10.53;80.95;101028.34;5013210;28;20041;-57
2024/02/03 06:38:45;;;;;;;1.02;0.57;;;;;;;10.53;80.10;101018.00;5025775;28;20410;-56
2024/02/03 06:41:15;;;;;;;2.75;1.20;;;;;;;10.50;80.54;101017.94;5023829;28;20045;-57
2024/02/03 06:43:43;;;;;;;2.80;1.00;;;;;;;10.54;80.33;101014.53;5020750;28;20050;-53
2024/02/03 06:46:12;;;;;;;2.75;1.00;;;;;;;10.59;80.47;101016.31;5021949;28;20072;-55
2024/02/03 06:48:38;;;;;;;4.03;1.13;;;;;;;10.57;80.57;101012.84;5046435;28;20045;-57
2024/02/03 06:51:05;;;;;;;5.28;1.08;;;;;;;10.56;80.50;101006.81;5017959;28;20081;-57
2024/02/03 06:53:32;;;;;;;4.13;1.02;;;;;;;10.59;80.41;101008.56;5010936;28;20062;-56
2024/02/03 06:55:58;;;;;;;2.70;0.90;;;;;;;10.50;79.72;101012.78;5018858;28;20502;-56
2024/02/03 06:58:26;;;;;;;3.72;1.13;;;;;;;10.55;80.32;101018.03;5020551;28;20050;-53
2024/02/03 07:00:53;;;;;;;3.25;0.98;;;;;;;10.59;80.80;101018.91;5017530;28;20411;-56
2024/02/03 07:03:20;;;;;;;3.90;1.10;;;;;;;10.58;79.47;101019.78;5013326;28;20616;-55
2024/02/03 07:05:47;;;;;;;3.78;1.02;;;;;;;10.58;79.81;101024.94;5015793;28;20442;-54
2024/02/03 07:08:13;;;;;;;3.58;1.48;;;;;;;10.57;80.13;101015.44;5019814;28;20053;-54
2024/02/03 07:10:41;;;;;;;2.55;0.88;;;;;;;10.59;79.63;101016.31;5013371;28;20477;-59
2024/02/03 07:13:08;;;;;;;4.13;1.30;;;;;;;10.58;80.58;101014.59;5011903;28;20046;-58
2024/02/03 07:15:35;;;;;;;5.13;2.17;;;;;;;10.58;79.99;101024.94;5015825;28;20050;-48
2024/02/03 07:18:04;;;;;;;4.35;1.90;;;;;;;10.61;79.99;101027.59;5020249;28;20050;-54
2024/02/03 07:20:32;;;;;;;4.82;2.67;;;;;;;10.58;80.63;101030.13;5011821;28;20049;-58
2024/02/03 07:22:58;;;;;;;2.08;1.13;;;;;;;10.59;80.12;101031.88;5021559;28;20054;-52
2024/02/03 07:25:25;;;;;;;3.33;1.73;;;;;;;10.60;80.30;101036.22;5028149;28;20046;-54
2024/02/03 07:27:52;;;;;;;4.63;1.77;;;;;;;10.57;80.04;101033.59;5011101;28;20053;-58
2024/02/03 07:30:18;;;;;;;6.82;2.90;;;;;;;10.61;79.56;101040.53;5025147;28;20041;-56
2024/02/03 07:32:45;;;;;;;4.90;2.28;;;;;;;10.54;80.86;101053.41;5021197;28;20140;-57
2024/02/03 07:35:12;;;;;;;10.25;2.85;;;;;;;10.58;79.89;101050.84;5022220;28;20119;-51
2024/02/03 07:37:39;;;;;;;16.33;4.68;;;;;;;10.62;80.52;101055.22;5019805;28;20049;-57
2024/02/03 07:40:06;;;;;;;11.77;3.80;;;;;;;10.59;80.75;101062.94;5016968;28;20054;-56
2024/02/03 07:42:33;;;;;;;22.95;5.97;;;;;;;10.63;80.30;101065.63;5021623;28;20046;-55
2024/02/03 07:45:00;;;;;;;12.80;3.72;;;;;;;10.63;79.90;101064.72;5016973;28;20503;-59
2024/02/03 07:47:26;;;;;;;18.95;4.30;;;;;;;10.63;80.69;101065.63;5017913;28;20093;-60
2024/02/03 07:49:53;;;;;;;53.42;15.27;;;;;;;10.61;80.40;101071.63;5009350;28;20128;-55
2024/02/03 07:52:20;;;;;;;48.53;16.05;;;;;;;10.65;79.28;101073.41;5001717;28;20074;-50
2024/02/03 07:54:47;;;;;;;6.25;2.67;;;;;;;10.64;80.48;101061.31;5002786;28;20057;-51
2024/02/03 07:57:14;;;;;;;7.03;3.53;;;;;;;10.65;80.02;101069.13;4996737;28;20046;-50
2024/02/03 07:59:40;;;;;;;3.17;1.95;;;;;;;10.64;79.89;101074.28;5000539;28;20061;-56
2024/02/03 08:02:07;;;;;;;5.05;1.65;;;;;;;10.66;79.53;101072.56;4998841;28;20510;-56
2024/02/03 08:04:34;;;;;;;4.72;1.58;;;;;;;10.65;79.68;101068.22;4999236;28;20054;-55
2024/02/03 08:07:00;;;;;;;3.90;1.30;;;;;;;10.66;80.14;101070.84;5015325;28;20050;-51
2024/02/03 08:09:29;;;;;;;5.07;2.25;;;;;;;10.68;79.79;101068.28;5025719;28;20379;-55
2024/02/03 08:11:59;;;;;;;3.88;1.73;;;;;;;10.65;80.40;101073.41;5022733;28;20053;-53
2024/02/03 08:14:26;;;;;;;49.40;11.23;;;;;;;10.64;80.32;101075.13;5008536;28;20060;-56
2024/02/03 08:16:53;;;;;;;43.25;10.77;;;;;;;10.59;80.45;101091.44;5011488;28;20091;-56
2024/02/03 08:19:20;;;;;;;31.42;7.60;;;;;;;10.59;80.70;101073.31;5011955;28;20056;-56
2024/02/03 08:21:47;;;;;;;22.77;6.65;;;;;;;10.59;80.60;101078.50;5019269;28;20053;-57
2024/02/03 08:24:14;;;;;;;27.27;8.57;;;;;;;10.61;80.64;101077.66;5016227;28;20050;-54
2024/02/03 08:26:42;;;;;;;16.17;4.32;;;;;;;10.63;80.87;101064.72;5020658;28;20557;-51
2024/02/03 08:29:08;;;;;;;18.73;5.55;;;;;;;10.63;79.38;101060.44;5013508;28;20053;-56
2024/02/03 08:31:35;;;;;;;12.60;3.47;;;;;;;10.58;80.07;101061.22;5012063;28;20053;-54
2024/02/03 08:34:02;;;;;;;7.72;3.10;;;;;;;10.65;79.99;101056.16;5018264;28;20049;-57
2024/02/03 08:36:30;;;;;;;8.80;3.33;;;;;;;10.76;79.94;101055.41;5012940;28;20060;-54
2024/02/03 08:38:57;;;;;;;12.00;3.78;;;;;;;11.19;79.46;101060.25;5016061;28;20057;-55
2024/02/03 08:41:24;;;;;;;7.43;2.03;;;;;;;11.53;79.13;101070.97;5008619;28;20045;-52
2024/02/03 08:43:50;;;;;;;3.95;2.13;;;;;;;11.88;78.95;101055.66;5020285;28;20410;-58
2024/02/03 08:46:19;;;;;;;3.42;1.10;;;;;;;12.01;77.71;101057.53;5011426;28;20061;-58
2024/02/03 08:48:46;;;;;;;1.73;0.90;;;;;;;11.92;77.98;101057.47;5025997;28;20057;-52
2024/02/03 08:51:17;;;;;;;4.40;2.08;;;;;;;11.89;77.34;101066.06;5020574;28;20053;-56
2024/02/03 08:53:43;;;;;;;3.10;1.20;;;;;;;11.83;76.82;101069.50;5022503;28;20057;-52
2024/02/03 08:56:10;;;;;;;7.55;2.28;;;;;;;11.73;77.31;101078.06;5016724;28;20383;-59
2024/02/03 08:58:39;;;;;;;7.20;2.60;;;;;;;11.80;77.68;101082.47;5022284;28;20049;-58
2024/02/03 09:01:06;;;;;;;5.45;2.40;;;;;;;11.82;78.19;101087.63;5014264;28;20054;-53
2024/02/03 09:03:34;;;;;;;8.85;3.25;;;;;;;11.87;76.94;101095.47;5025959;28;20045;-54
2024/02/03 09:06:05;;;;;;;11.43;3.08;;;;;;;11.84;76.86;101101.53;5021227;28;20050;-51
2024/02/03 09:08:31;;;;;;;11.38;3.22;;;;;;;11.76;78.28;101093.66;5015132;28;20056;-50
2024/02/03 09:10:58;;;;;;;19.35;5.47;;;;;;;11.70;78.11;101093.59;5015051;28;20053;-55
2024/02/03 09:13:25;;;;;;;20.33;6.03;;;;;;;11.75;76.98;101097.09;5020392;28;20053;-55
2024/02/03 09:15:54;;;;;;;16.73;4.97;;;;;;;11.81;76.96;101085.91;5013557;28;20055;-58
2024/02/03 09:18:22;;;;;;;16.42;5.55;;;;;;;12.17;77.90;101094.03;5018926;28;20136;-56
2024/02/03 09:20:48;;;;;;;13.10;4.50;;;;;;;12.50;77.26;101092.50;5015943;28;20132;-56
2024/02/03 09:23:15;;;;;;;16.55;5.10;;;;;;;13.37;77.50;101085.06;5011267;28;20053;-53
2024/02/03 09:25:42;;;;;;;11.90;5.18;;;;;;;14.21;76.36;101091.22;5018165;28;20041;-56
2024/02/03 09:28:08;;;;;;;11.77;4.70;;;;;;;15.13;74.31;101088.41;5019628;28;20045;-51
2024/02/03 09:30:35;;;;;;;13.75;4.85;;;;;;;16.05;72.87;101090.41;5013616;28;20546;-52
2024/02/03 09:33:02;;;;;;;8.15;3.90;;;;;;;16.89;70.44;101094.72;5021991;28;20049;-55
2024/02/03 09:35:29;;;;;;;9.73;4.22;;;;;;;17.56;68.87;101090.41;5025005;28;20049;-53
2024/02/03 09:37:56;;;;;;;5.18;1.80;;;;;;;18.30;67.24;101097.94;5049173;28;20061;-55
2024/02/03 09:40:26;;;;;;;3.83;1.35;;;;;;;18.73;65.03;101091.88;5022502;28;20139;-58
2024/02/03 09:42:53;;;;;;;8.90;3.50;;;;;;;19.32;65.21;101088.91;5017758;28;20080;-56
2024/02/03 09:45:21;;;;;;;5.60;2.10;;;;;;;19.80;63.56;101094.78;5014732;28;20074;-53
2024/02/03 09:47:48;;;;;;;9.30;2.80;;;;;;;20.14;61.41;101100.13;5017685;28;20057;-52
2024/02/03 09:50:15;;;;;;;7.03;2.00;;;;;;;20.22;59.54;101101.66;5019891;28;20065;-56
2024/02/03 09:52:44;;;;;;;5.95;2.60;;;;;;;20.32;58.92;101097.00;5017417;28;20061;-54
2024/02/03 09:55:12;;;;;;;2.80;1.40;;;;;;;20.07;59.11;101101.16;5011674;28;20041;-55
2024/02/03 09:57:39;;;;;;;2.78;1.20;;;;;;;20.01;59.67;101099.56;5016014;28;20132;-53
2024/02/03 10:00:10;;;;;;;7.05;2.80;;;;;;;19.62;58.73;101097.00;5014223;28;20092;-53
2024/02/03 10:02:37;;;;;;;1.60;1.08;;;;;;;18.88;59.33;101100.31;5012095;28;20061;-52
2024/02/03 10:05:06;;;;;;;3.65;0.82;;;;;;;18.22;59.96;101101.56;5017106;28;20939;-57
2024/02/03 10:07:33;;;;;;;3.13;0.82;;;;;;;17.60;61.69;101107.78;5018936;28;20049;-53
2024/02/03 10:10:04;;;;;;;2.75;0.70;;;;;;;17.05;62.17;101102.38;5015663;28;20107;-53
2024/02/03 10:12:34;;;;;;;3.45;0.68;;;;;;;16.62;63.40;101115.09;5020730;28;20136;-57
2024/02/03 10:15:02;;;;;;;1.08;0.52;;;;;;;16.26;63.76;101109.38;5017031;28;20042;-50
2024/02/03 10:17:29;;;;;;;2.58;0.60;;;;;;;15.99;64.65;101127.91;5037154;28;20126;-56
2024/02/03 10:19:56;;;;;;;1.35;1.10;;;;;;;15.75;64.63;101131.53;5014811;28;20167;-56
2024/02/03 10:22:23;;;;;;;1.50;0.70;;;;;;;15.49;65.00;101127.31;5022409;28;20546;-52
2024/02/03 10:24:50;;;;;;;1.95;0.98;;;;;;;15.21;66.10;101137.91;5017731;28;20053;-53
2024/02/03 10:27:23;;;;;;;1.50;0.80;;;;;;;14.93;66.27;101159.75;5019012;28;20073;-55
2024/02/03 10:29:55;;;;;;;1.30;0.50;;;;;;;14.78;67.00;101139.81;5046100;28;20045;-56
2024/02/03 10:32:24;;;;;;;1.63;0.65;;;;;;;14.63;67.85;101136.31;5012219;28;20056;-57
2024/02/03 10:34:53;;;;;;;1.20;1.02;;;;;;;14.54;67.80;101149.41;5033123;28;20124;-58
2024/02/03 10:37:20;;;;;;;1.88;1.05;;;;;;;14.38;67.82;101152.03;5014599;28;20066;-55
2024/02/03 10:39:47;;;;;;;1.55;0.75;;;;;;;14.21;68.58;101164.16;5016955;28;20064;-56
2024/02/03 10:42:20;;;;;;;0.75;0.47;;;;;;;14.16;68.57;101160.72;5007317;28;20663;-56
2024/02/03 10:44:49;;;;;;;2.28;0.85;;;;;;;13.99;69.43;101169.38;5046309;28;20172;-53
2024/02/03 10:47:22;;;;;;;1.70;1.17;;;;;;;13.87;68.93;101171.09;5028004;28;20430;-55
2024/02/03 10:49:49;;;;;;;1.42;0.50;;;;;;;13.77;69.11;101169.34;5019619;28;20046;-56
2024/02/03 10:52:19;;;;;;;9.65;3.58;;;;;;;13.69;70.09;101171.06;5041998;28;20053;-55
2024/02/03 10:54:51;;;;;;;6.47;3.20;;;;;;;13.63;70.31;101171.91;5017943;28;20049;-59
2024/02/03 10:57:19;;;;;;;10.32;5.72;;;;;;;13.51;71.12;101179.69;5051584;28;20498;-55
2024/02/03 10:59:46;;;;;;;13.98;7.07;;;;;;;13.50;70.74;101176.22;4993173;28;20137;-52
2024/02/03 11:02:17;;;;;;;7.13;4.20;;;;;;;13.47;70.30;101163.16;5029747;28;20045;-58
2024/02/03 11:04:49;;;;;;;4.57;1.95;;;;;;;13.46;70.67;101164.03;5027389;28;20049;-58
2024/02/03 11:07:21;;;;;;;5.53;3.13;;;;;;;13.45;70.97;101172.72;5024802;28;20041;-55
2024/02/03 11:09:57;;;;;;;8.98;3.22;;;;;;;13.42;70.92;101168.38;5022024;28;20047;-56
2024/02/03 11:12:33;;;;;;;4.63;2.00;;;;;;;13.40;71.82;101174.44;5022179;28;20045;-56
2024/02/03 11:15:00;;;;;;;1.98;1.33;;;;;;;13.39;71.63;101162.25;5049809;28;20091;-57
2024/02/03 11:17:32;;;;;;;4.32;3.00;;;;;;;13.40;71.46;101166.63;5019124;28;20145;-57
2024/02/03 11:20:05;;;;;;;4.88;1.90;;;;;;;13.44;71.20;101168.38;4996272;28;20050;-57
2024/02/03 11:22:32;;;;;;;6.05;1.70;;;;;;;13.42;71.77;101160.56;4999321;28;20507;-58
2024/02/03 11:24:59;;;;;;;6.45;2.67;;;;;;;13.40;72.09;101153.63;5002647;28;20424;-58